Louviers, Colorado
Current Conditions -  °F | °C
As of 5:53 PM on Tuesday 21 Oct 2014 (Local Time) from KAPA Reporting Station
Broken Clouds Broken Clouds  
Wind Chill: 65°   Ceiling: 22000
Heat Index: 65°   Visibility: 10mi
Dew Point: 40°   Wind: 7mph
Humidity: 40%   Direction: 110°ESE
Pressure: 29.93"   Gusts: NA
Location:  39.48°N, 105.01°W
Report Text: KAPA 212353Z 11006KT 10SM FEW090 SCT120 BKN220 18/04 A2993 RMK AO2 SLP093 60000 T01830044 10233 20183 58003
Loading
Personal Weather Stations






























Interactive Weather Map
Tropical Storm Tracking
New forecast layout! Learn more

10-Day Weather Forecast

Advertisements
Track Severe Weather on mobile